createdAt,value
2022-12-06T00:00:32.211Z,99020.52
2022-12-06T00:03:39.731Z,99018.73
2022-12-06T00:06:48.073Z,99024.29
2022-12-06T00:09:54.190Z,99023.87
2022-12-06T00:12:59.750Z,99022.46
2022-12-06T00:16:07.585Z,99022.00
2022-12-06T00:19:16.474Z,99021.84
2022-12-06T00:22:22.034Z,99022.17
2022-12-06T00:25:27.875Z,99018.39
2022-12-06T00:28:33.738Z,99017.24
2022-12-06T00:31:39.353Z,99011.80
2022-12-06T00:34:45.038Z,99004.20
2022-12-06T00:37:50.548Z,98996.94
2022-12-06T00:41:03.771Z,98996.52
2022-12-06T00:44:09.731Z,98990.83
2022-12-06T00:47:15.326Z,98984.31
2022-12-06T00:50:20.980Z,98976.25
2022-12-06T00:53:26.934Z,98976.19
2022-12-06T00:56:32.791Z,98978.67
2022-12-06T00:59:38.340Z,98981.08
2022-12-06T01:02:43.979Z,98986.64
2022-12-06T01:05:52.060Z,98985.95
2022-12-06T01:08:58.676Z,98978.58
2022-12-06T01:12:04.365Z,98978.26
2022-12-06T01:15:11.897Z,98981.31
2022-12-06T01:18:17.678Z,98981.59
2022-12-06T01:21:24.391Z,98983.93
2022-12-06T01:24:30.005Z,98987.61
2022-12-06T01:27:35.449Z,98984.80
2022-12-06T01:30:43.433Z,98979.39
2022-12-06T01:33:49.726Z,98980.67
2022-12-06T01:36:55.275Z,98978.92
2022-12-06T01:40:01.065Z,98969.60
2022-12-06T01:43:06.987Z,98969.67
2022-12-06T01:46:29.977Z,98966.77
2022-12-06T01:49:37.639Z,98963.11
2022-12-06T01:52:51.008Z,98953.58
2022-12-06T01:55:57.139Z,98945.00
2022-12-06T01:59:03.572Z,98942.39
2022-12-06T02:02:10.191Z,98938.00
2022-12-06T02:05:16.843Z,98930.41
2022-12-06T02:08:23.263Z,98922.08
2022-12-06T02:11:33.640Z,98922.68
2022-12-06T02:14:41.758Z,98920.98
2022-12-06T02:17:47.966Z,98918.54
2022-12-06T02:21:01.299Z,98907.34
2022-12-06T02:24:38.660Z,98903.95
2022-12-06T02:28:20.828Z,98894.34
2022-12-06T02:31:30.237Z,98886.80
2022-12-06T02:34:45.415Z,98878.44
2022-12-06T02:37:55.063Z,98874.23
2022-12-06T02:41:04.767Z,98867.25
2022-12-06T02:44:20.189Z,98861.48
2022-12-06T02:47:31.780Z,98858.36
2022-12-06T02:50:40.969Z,98854.40
2022-12-06T02:53:49.733Z,98854.05
2022-12-06T02:56:55.257Z,98856.52
2022-12-06T03:00:01.001Z,98859.49
2022-12-06T03:03:33.314Z,98859.89
2022-12-06T03:06:58.982Z,98867.14
2022-12-06T03:10:23.433Z,98869.60
2022-12-06T03:13:35.787Z,98867.96
2022-12-06T03:16:48.483Z,98862.18
2022-12-06T03:20:03.882Z,98852.11
2022-12-06T03:23:12.724Z,98844.33
2022-12-06T03:26:24.971Z,98837.58
2022-12-06T03:29:35.512Z,98829.98
2022-12-06T03:32:46.203Z,98831.95
2022-12-06T03:35:54.318Z,98822.91
2022-12-06T03:39:02.892Z,98816.20
2022-12-06T03:42:09.710Z,98815.27
2022-12-06T03:45:16.466Z,98812.41
2022-12-06T03:48:27.539Z,98806.04
2022-12-06T03:51:36.137Z,98804.17
2022-12-06T03:54:43.410Z,98802.84
2022-12-06T03:57:49.035Z,98797.27
2022-12-06T04:00:54.791Z,98789.70
2022-12-06T04:04:00.875Z,98784.14
2022-12-06T04:07:06.469Z,98779.55
2022-12-06T04:10:13.308Z,98776.40
2022-12-06T04:13:19.937Z,98775.06
2022-12-06T04:16:43.120Z,98776.99
2022-12-06T04:19:52.050Z,98772.19
2022-12-06T04:23:07.007Z,98762.15
2022-12-06T04:26:14.921Z,98740.77
2022-12-06T04:29:38.187Z,98725.90
2022-12-06T04:33:01.222Z,98723.77
2022-12-06T04:36:25.228Z,98730.86
2022-12-06T04:39:30.950Z,98735.09
2022-12-06T04:42:54.143Z,98731.73
2022-12-06T04:45:59.624Z,98723.29
2022-12-06T04:49:05.179Z,98722.50
2022-12-06T04:52:11.916Z,98729.27
2022-12-06T04:55:18.067Z,98725.91
2022-12-06T04:58:23.625Z,98725.48
2022-12-06T05:01:29.149Z,98725.11
2022-12-06T05:04:35.243Z,98721.27
2022-12-06T05:07:40.742Z,98712.27
2022-12-06T05:10:49.771Z,98704.63
2022-12-06T05:13:55.372Z,98703.74
2022-12-06T05:17:00.843Z,98703.38
2022-12-06T05:20:07.990Z,98703.52
2022-12-06T05:23:13.658Z,98705.55
2022-12-06T05:26:20.744Z,98709.67
2022-12-06T05:29:26.223Z,98710.41
2022-12-06T05:32:31.740Z,98706.80
2022-12-06T05:35:39.895Z,98707.77
2022-12-06T05:38:51.130Z,98709.58
2022-12-06T05:41:57.195Z,98707.26
2022-12-06T05:45:02.743Z,98704.80
2022-12-06T05:48:09.563Z,98702.59
2022-12-06T05:51:15.345Z,98702.76
2022-12-06T05:54:21.235Z,98702.56
2022-12-06T05:57:26.783Z,98698.95
2022-12-06T06:00:32.643Z,98702.81
2022-12-06T06:03:42.448Z,98701.65
2022-12-06T06:06:51.625Z,98702.70
2022-12-06T06:09:57.260Z,98701.63
2022-12-06T06:13:04.464Z,98697.75
2022-12-06T06:16:10.262Z,98702.71
2022-12-06T06:19:16.276Z,98699.50
2022-12-06T06:22:23.261Z,98701.25
2022-12-06T06:25:28.915Z,98698.59
2022-12-06T06:28:34.465Z,98699.92
2022-12-06T06:31:40.048Z,98699.19
2022-12-06T06:34:45.590Z,98697.11
2022-12-06T06:37:51.112Z,98696.88
2022-12-06T06:40:56.660Z,98695.54
2022-12-06T06:44:02.210Z,98698.34
2022-12-06T06:47:07.964Z,98699.02
2022-12-06T06:50:14.618Z,98698.29
2022-12-06T06:53:20.604Z,98701.90
2022-12-06T06:56:26.148Z,98703.55
2022-12-06T06:59:31.698Z,98691.86
2022-12-06T07:02:39.668Z,98689.34
2022-12-06T07:05:45.332Z,98690.14
2022-12-06T07:08:51.007Z,98689.27
2022-12-06T07:11:57.683Z,98683.77
2022-12-06T07:15:03.125Z,98674.64
2022-12-06T07:18:08.784Z,98667.70
2022-12-06T07:21:16.437Z,98661.52
2022-12-06T07:24:22.133Z,98659.92
2022-12-06T07:27:27.682Z,98664.66
2022-12-06T07:30:33.304Z,98659.70
2022-12-06T07:33:39.445Z,98660.77
2022-12-06T07:36:44.946Z,98668.31
2022-12-06T07:39:50.378Z,98670.14
2022-12-06T07:43:13.353Z,98667.22
2022-12-06T07:46:18.844Z,98669.00
2022-12-06T07:49:24.797Z,98668.66
2022-12-06T07:52:33.937Z,98661.19
2022-12-06T07:55:39.466Z,98655.42
2022-12-06T07:58:45.398Z,98644.00
2022-12-06T08:01:51.336Z,98636.65
2022-12-06T08:04:58.534Z,98634.83
2022-12-06T08:08:04.139Z,98634.14
2022-12-06T08:11:10.770Z,98634.94
2022-12-06T08:14:16.959Z,98634.41
2022-12-06T08:17:22.429Z,98632.45
2022-12-06T08:20:27.931Z,98633.00
2022-12-06T08:23:34.651Z,98636.30
2022-12-06T08:26:40.354Z,98630.54
2022-12-06T08:29:46.319Z,98628.96
2022-12-06T08:32:51.759Z,98625.23
2022-12-06T08:35:57.315Z,98623.98
2022-12-06T08:39:02.916Z,98625.20
2022-12-06T08:42:08.620Z,98622.29
2022-12-06T08:45:14.204Z,98622.52
2022-12-06T08:48:19.719Z,98625.39
2022-12-06T08:51:25.574Z,98623.34
2022-12-06T08:54:31.434Z,98624.77
2022-12-06T08:57:36.973Z,98624.73
2022-12-06T09:00:42.427Z,98616.06
2022-12-06T09:03:48.163Z,98618.98
2022-12-06T09:06:53.935Z,98612.91
2022-12-06T09:09:59.897Z,98614.19
2022-12-06T09:13:04.188Z,98614.30
2022-12-06T09:16:15.794Z,98613.00
2022-12-06T09:19:21.835Z,98610.94
2022-12-06T09:22:27.520Z,98608.81
2022-12-06T09:25:33.069Z,98605.96
2022-12-06T09:28:41.074Z,98597.41
2022-12-06T09:31:46.811Z,98588.70
2022-12-06T09:34:52.862Z,98584.96
2022-12-06T09:37:59.402Z,98587.51
2022-12-06T09:41:12.852Z,98591.65
2022-12-06T09:44:32.319Z,98589.86
2022-12-06T09:47:53.836Z,98586.25
2022-12-06T09:51:14.871Z,98581.52
2022-12-06T09:54:33.935Z,98574.97
2022-12-06T09:57:46.592Z,98568.11
2022-12-06T10:01:01.256Z,98562.96
2022-12-06T10:04:43.032Z,98560.45
2022-12-06T10:07:55.954Z,98554.10
2022-12-06T10:11:09.921Z,98544.23
2022-12-06T10:14:31.646Z,98547.41
2022-12-06T10:17:52.262Z,98545.55
2022-12-06T10:21:10.800Z,98545.23
2022-12-06T10:24:29.668Z,98541.95
2022-12-06T10:27:40.687Z,98538.24
2022-12-06T10:30:54.642Z,98537.10
2022-12-06T10:34:06.052Z,98539.48
2022-12-06T10:37:23.610Z,98538.14
2022-12-06T10:40:38.169Z,98533.54
2022-12-06T10:43:53.550Z,98528.09
2022-12-06T10:47:04.868Z,98526.02
2022-12-06T10:50:24.001Z,98530.05
2022-12-06T10:53:35.083Z,98527.07
2022-12-06T10:56:43.136Z,98520.23
2022-12-06T10:59:55.183Z,98516.39
2022-12-06T11:03:12.311Z,98517.20
2022-12-06T11:06:27.031Z,98516.98
2022-12-06T11:09:39.896Z,98512.97
2022-12-06T11:12:46.671Z,98511.36
2022-12-06T11:15:59.410Z,98509.75
2022-12-06T11:19:21.833Z,98506.20
2022-12-06T11:22:37.562Z,98503.21
2022-12-06T11:26:00.175Z,98503.45
2022-12-06T11:29:11.249Z,98504.46
2022-12-06T11:32:19.361Z,98504.48
2022-12-06T11:35:27.782Z,98504.40
2022-12-06T11:38:34.754Z,98505.84
2022-12-06T11:41:40.419Z,98504.16
2022-12-06T11:45:01.370Z,98504.12
2022-12-06T11:48:18.199Z,98504.13
2022-12-06T11:51:25.741Z,98496.28
2022-12-06T11:54:35.167Z,98492.73
2022-12-06T11:57:46.254Z,98488.33
2022-12-06T12:01:04.271Z,98484.77
2022-12-06T12:04:27.867Z,98486.91
2022-12-06T12:07:35.095Z,98488.80
2022-12-06T12:10:44.392Z,98491.80
2022-12-06T12:13:55.884Z,98489.17
2022-12-06T12:17:04.808Z,98484.02
2022-12-06T12:20:23.321Z,98486.51
2022-12-06T12:23:33.999Z,98483.02
2022-12-06T12:26:42.597Z,98474.08
2022-12-06T12:29:48.309Z,98465.34
2022-12-06T12:33:09.591Z,98462.79
2022-12-06T12:36:23.057Z,98457.71
2022-12-06T12:39:42.331Z,98461.11
2022-12-06T12:42:48.951Z,98462.98
2022-12-06T12:46:20.827Z,98461.04
2022-12-06T12:49:31.362Z,98463.34
2022-12-06T12:52:39.955Z,98467.39
2022-12-06T12:55:46.706Z,98470.84
2022-12-06T12:58:55.326Z,98468.81
2022-12-06T13:02:06.766Z,98463.48
2022-12-06T13:05:35.481Z,98462.18
2022-12-06T13:08:42.627Z,98460.05
2022-12-06T13:11:54.075Z,98462.41
2022-12-06T13:15:05.193Z,98458.61
2022-12-06T13:18:15.251Z,98459.58
2022-12-06T13:21:24.348Z,98456.21
2022-12-06T13:24:32.586Z,98452.17
2022-12-06T13:27:41.661Z,98448.67
2022-12-06T13:30:50.397Z,98445.19
2022-12-06T13:34:01.631Z,98443.84
2022-12-06T13:37:27.248Z,98443.20
2022-12-06T13:40:55.947Z,98446.91
2022-12-06T13:44:01.594Z,98449.86
2022-12-06T13:50:56.165Z,98454.14
2022-12-06T13:54:37.609Z,98457.73
2022-12-06T13:57:43.362Z,98456.91
2022-12-06T14:00:53.861Z,98458.17
2022-12-06T14:04:01.316Z,98460.06
2022-12-06T14:10:15.643Z,98462.23
2022-12-06T14:13:22.880Z,98461.21
2022-12-06T14:16:32.619Z,98461.15
2022-12-06T14:19:45.574Z,98458.45
2022-12-06T14:22:51.372Z,98463.61
2022-12-06T14:26:14.016Z,98467.45
2022-12-06T14:29:24.828Z,98468.45
2022-12-06T14:32:39.082Z,98470.13
2022-12-06T14:35:52.470Z,98475.59
2022-12-06T14:39:02.499Z,98477.73
2022-12-06T14:42:37.753Z,98478.14
2022-12-06T14:45:45.190Z,98477.34
2022-12-06T14:49:08.523Z,98478.20
2022-12-06T14:52:23.208Z,98478.79
2022-12-06T14:55:31.007Z,98479.13
2022-12-06T14:58:38.016Z,98478.48
2022-12-06T15:01:54.351Z,98482.19
2022-12-06T15:05:00.687Z,98484.38
2022-12-06T15:08:18.298Z,98483.80
2022-12-06T15:12:00.330Z,98487.20
2022-12-06T15:15:07.081Z,98482.29
2022-12-06T15:18:25.559Z,98481.14
2022-12-06T15:21:31.195Z,98483.70
2022-12-06T15:24:36.780Z,98486.56
2022-12-06T15:27:42.348Z,98487.86
2022-12-06T15:30:48.311Z,98490.18
2022-12-06T15:33:54.125Z,98486.35
2022-12-06T15:37:36.850Z,98485.91
2022-12-06T15:40:26.830Z,98482.05
2022-12-06T15:43:34.901Z,98478.13
2022-12-06T15:46:40.988Z,98475.75
2022-12-06T15:49:46.751Z,98472.25
2022-12-06T15:52:52.282Z,98473.17
2022-12-06T15:55:58.467Z,98478.15
2022-12-06T15:59:04.004Z,98476.70
2022-12-06T16:02:15.903Z,98476.09
2022-12-06T16:05:21.716Z,98477.88
2022-12-06T16:08:27.375Z,98475.21
2022-12-06T16:11:33.070Z,98469.60
2022-12-06T16:14:38.626Z,98460.00
2022-12-06T16:17:44.275Z,98450.10
2022-12-06T16:20:50.507Z,98444.66
2022-12-06T16:24:13.073Z,98441.94
2022-12-06T16:27:19.970Z,98440.15
2022-12-06T16:30:35.272Z,98435.63
2022-12-06T16:33:41.715Z,98439.51
2022-12-06T16:37:02.030Z,98442.48
2022-12-06T16:40:19.928Z,98447.81
2022-12-06T16:43:25.711Z,98454.08
2022-12-06T16:46:33.829Z,98453.67
2022-12-06T16:49:47.007Z,98451.05
2022-12-06T16:52:55.209Z,98449.41
2022-12-06T16:56:00.806Z,98446.84
2022-12-06T16:59:06.874Z,98449.38
2022-12-06T17:02:24.510Z,98450.61
2022-12-06T17:05:30.517Z,98453.16
2022-12-06T17:08:36.264Z,98452.83
2022-12-06T17:12:00.199Z,98452.52
2022-12-06T17:15:06.583Z,98455.78
2022-12-06T17:18:10.679Z,98458.86
2022-12-06T17:21:17.375Z,98460.13
2022-12-06T17:24:25.668Z,98464.56
2022-12-06T17:27:31.321Z,98462.38
2022-12-06T17:30:36.974Z,98457.97
2022-12-06T17:33:42.706Z,98458.20
2022-12-06T17:36:48.648Z,98460.39
2022-12-06T17:39:54.230Z,98463.73
2022-12-06T17:43:02.519Z,98464.35
2022-12-06T17:46:11.430Z,98465.64
2022-12-06T17:49:19.361Z,98460.32
2022-12-06T17:52:25.341Z,98458.45
2022-12-06T17:55:31.089Z,98456.38
2022-12-06T17:58:37.043Z,98456.98
2022-12-06T18:02:14.851Z,98456.62
2022-12-06T18:05:10.477Z,98458.10
2022-12-06T18:08:16.210Z,98457.10
2022-12-06T18:11:23.876Z,98458.86
2022-12-06T18:14:29.889Z,98465.98
2022-12-06T18:17:35.540Z,98463.58
2022-12-06T18:20:43.286Z,98461.53
2022-12-06T18:24:19.818Z,98460.51
2022-12-06T18:27:16.356Z,98460.48
2022-12-06T18:30:22.315Z,98462.55
2022-12-06T18:33:31.114Z,98458.85
2022-12-06T18:36:36.896Z,98456.89
2022-12-06T18:39:42.441Z,98453.42
2022-12-06T18:42:48.032Z,98453.45
2022-12-06T18:46:00.357Z,98454.84
2022-12-06T18:49:06.188Z,98454.80
2022-12-06T18:52:12.834Z,98452.88
2022-12-06T18:55:18.861Z,98457.09
2022-12-06T18:58:24.551Z,98456.08
2022-12-06T19:01:33.674Z,98457.42
2022-12-06T19:04:39.298Z,98461.21
2022-12-06T19:07:45.854Z,98457.25
2022-12-06T19:10:51.479Z,98461.98
2022-12-06T19:13:58.423Z,98459.84
2022-12-06T19:17:04.271Z,98459.76
2022-12-06T19:20:11.235Z,98464.77
2022-12-06T19:23:17.095Z,98469.36
2022-12-06T19:26:23.425Z,98468.89
2022-12-06T19:29:27.919Z,98465.17
2022-12-06T19:32:34.264Z,98466.79
2022-12-06T19:35:38.308Z,98465.38
2022-12-06T19:38:44.577Z,98467.70
2022-12-06T19:42:04.869Z,98469.83
2022-12-06T19:45:12.551Z,98469.67
2022-12-06T19:48:18.222Z,98468.65
2022-12-06T19:51:24.408Z,98466.14
2022-12-06T19:54:32.986Z,98465.18
2022-12-06T19:57:40.422Z,98468.97
2022-12-06T20:00:50.311Z,98470.58
2022-12-06T20:03:56.511Z,98472.76
2022-12-06T20:07:02.488Z,98471.35
2022-12-06T20:10:10.148Z,98469.89
2022-12-06T20:13:15.687Z,98472.36
2022-12-06T20:16:21.412Z,98468.52
2022-12-06T20:19:27.541Z,98472.49
2022-12-06T20:22:33.210Z,98470.40
2022-12-06T20:25:38.792Z,98468.67
2022-12-06T20:28:45.221Z,98469.34
2022-12-06T20:31:52.101Z,98470.65
2022-12-06T20:34:57.823Z,98471.00
2022-12-06T20:38:03.497Z,98471.36
2022-12-06T20:41:14.473Z,98471.41
2022-12-06T20:44:21.355Z,98473.56
2022-12-06T20:47:27.072Z,98466.95
2022-12-06T20:50:32.657Z,98466.67
2022-12-06T20:53:38.415Z,98464.84
2022-12-06T20:56:44.338Z,98465.35
2022-12-06T20:59:50.023Z,98460.27
2022-12-06T21:02:55.735Z,98459.98
2022-12-06T21:06:02.573Z,98464.29
2022-12-06T21:09:08.145Z,98463.30
2022-12-06T21:12:13.721Z,98467.69
2022-12-06T21:15:19.615Z,98464.64
2022-12-06T21:18:28.572Z,98462.45
2022-12-06T21:21:37.674Z,98464.10
2022-12-06T21:24:43.327Z,98460.71
2022-12-06T21:27:48.923Z,98463.77
2022-12-06T21:30:55.596Z,98466.95
2022-12-06T21:34:01.927Z,98467.40
2022-12-06T21:37:06.036Z,98472.34
2022-12-06T21:40:13.700Z,98477.05
2022-12-06T21:43:19.265Z,98477.92
2022-12-06T21:46:26.929Z,98477.77
2022-12-06T21:49:32.555Z,98477.41
2022-12-06T21:52:38.290Z,98478.73
2022-12-06T21:55:43.944Z,98476.52
2022-12-06T21:58:50.422Z,98475.41
2022-12-06T22:01:56.014Z,98478.24
2022-12-06T22:05:01.671Z,98479.16
2022-12-06T22:08:08.075Z,98479.80
2022-12-06T22:11:16.060Z,98479.14
2022-12-06T22:14:22.051Z,98482.61
2022-12-06T22:17:28.014Z,98479.91
2022-12-06T22:20:33.612Z,98476.92
2022-12-06T22:23:39.627Z,98473.85
2022-12-06T22:26:45.195Z,98474.84
2022-12-06T22:29:50.820Z,98475.66
2022-12-06T22:32:56.370Z,98472.95
2022-12-06T22:36:03.561Z,98476.31
2022-12-06T22:39:09.340Z,98475.30
2022-12-06T22:42:14.864Z,98475.73
2022-12-06T22:45:20.539Z,98478.98
2022-12-06T22:48:26.302Z,98474.75
2022-12-06T22:51:33.301Z,98472.60
2022-12-06T22:54:39.210Z,98471.55
2022-12-06T22:57:44.864Z,98471.83
2022-12-06T23:00:50.518Z,98468.57
2022-12-06T23:03:57.104Z,98463.73
2022-12-06T23:07:03.304Z,98460.73
2022-12-06T23:10:11.660Z,98464.55
2022-12-06T23:13:17.214Z,98461.21
2022-12-06T23:16:24.787Z,98463.53
2022-12-06T23:19:30.566Z,98467.73
2022-12-06T23:22:36.128Z,98465.59
2022-12-06T23:25:41.770Z,98464.55
2022-12-06T23:28:48.132Z,98459.33
2022-12-06T23:31:52.316Z,98455.46
2022-12-06T23:34:57.948Z,98450.76
2022-12-06T23:38:03.479Z,98443.16
2022-12-06T23:41:12.275Z,98441.58
2022-12-06T23:44:18.039Z,98439.40
2022-12-06T23:47:23.630Z,98436.72
2022-12-06T23:50:29.235Z,98437.64
2022-12-06T23:53:35.913Z,98437.64
2022-12-06T23:56:42.997Z,98434.40
2022-12-06T23:59:48.650Z,98427.33
